Terminal Aerodrome Forecast
Issued by NWS Shreveport, LA

Home | Current Version | Previous Version | Text Only | Print | Product List | Glossary On
Versions: 1 2 3 4 5 6 7 8 9 10 11 12 13 14 15 16
870
FTUS44 KSHV 200520
TAFLFK
TAF
KLFK 200520Z 2006/2106 14010KT P6SM OVC020
     FM201200 19010KT 3SM TSRA BR OVC010CB
     FM202200 15007KT 5SM -RA BR VCTS OVC015CB=

USA.gov is the U.S. government's official web portal to all federal, state and local government web resources and services.